createdAt,value
2019-02-26T00:00:10.359Z,82.24
2019-02-26T00:01:08.959Z,81.86
2019-02-26T00:02:08.951Z,82.43
2019-02-26T00:03:08.937Z,82.62
2019-02-26T00:04:08.926Z,83.19
2019-02-26T00:05:08.923Z,82.34
2019-02-26T00:06:08.917Z,82.91
2019-02-26T00:07:08.909Z,82.71
2019-02-26T00:08:08.898Z,82.71
2019-02-26T00:09:08.886Z,83.29
2019-02-26T00:10:08.879Z,82.91
2019-02-26T00:11:10.660Z,83.48
2019-02-26T00:12:08.864Z,83.58
2019-02-26T00:13:08.854Z,83.29
2019-02-26T00:14:13.195Z,83.39
2019-02-26T00:15:08.830Z,83.39
2019-02-26T00:16:10.521Z,83.10
2019-02-26T00:17:10.701Z,83.48
2019-02-26T00:18:11.522Z,82.71
2019-02-26T00:19:09.779Z,83.00
2019-02-26T00:20:10.934Z,83.29
2019-02-26T00:21:08.791Z,83.48
2019-02-26T00:22:09.519Z,83.86
2019-02-26T00:23:08.762Z,83.48
2019-02-26T00:24:09.926Z,83.00
2019-02-26T00:25:10.434Z,83.29
2019-02-26T00:26:10.514Z,83.10
2019-02-26T00:27:09.693Z,83.95
2019-02-26T00:28:08.716Z,83.86
2019-02-26T00:29:08.708Z,83.76
2019-02-26T00:30:09.593Z,84.01
2019-02-26T00:31:08.692Z,83.95
2019-02-26T00:32:10.065Z,83.58
2019-02-26T00:33:08.672Z,84.05
2019-02-26T00:34:10.764Z,83.95
2019-02-26T00:35:08.650Z,83.62
2019-02-26T00:36:09.487Z,83.06
2019-02-26T00:37:08.639Z,84.01
2019-02-26T00:38:09.472Z,83.44
2019-02-26T00:39:08.619Z,83.34
2019-02-26T00:40:10.014Z,83.44
2019-02-26T00:41:08.599Z,83.82
2019-02-26T00:42:08.590Z,84.10
2019-02-26T00:43:08.587Z,83.82
2019-02-26T00:44:08.578Z,83.82
2019-02-26T00:45:08.563Z,84.10
2019-02-26T00:46:10.323Z,84.29
2019-02-26T00:47:09.004Z,84.29
2019-02-26T00:48:08.531Z,84.29
2019-02-26T00:49:08.525Z,84.48
2019-02-26T00:50:09.652Z,84.77
2019-02-26T00:51:08.516Z,85.05
2019-02-26T00:52:10.614Z,83.91
2019-02-26T00:53:08.490Z,84.86
2019-02-26T00:54:08.481Z,84.86
2019-02-26T00:55:09.473Z,84.95
2019-02-26T00:56:10.292Z,84.95
2019-02-26T00:57:09.457Z,85.05
2019-02-26T00:58:10.663Z,85.24
2019-02-26T00:59:08.430Z,85.24
2019-02-26T01:00:09.951Z,85.24
2019-02-26T01:01:12.162Z,84.86
2019-02-26T01:02:08.404Z,85.24
2019-02-26T01:03:09.334Z,85.43
2019-02-26T01:04:08.392Z,85.62
2019-02-26T01:05:08.794Z,85.05
2019-02-26T01:06:08.376Z,85.05
2019-02-26T01:07:08.358Z,84.67
2019-02-26T01:08:10.626Z,84.95
2019-02-26T01:09:11.023Z,84.86
2019-02-26T01:10:08.329Z,84.95
2019-02-26T01:11:08.468Z,85.15
2019-02-26T01:12:09.223Z,85.15
2019-02-26T01:13:08.300Z,85.24
2019-02-26T01:14:08.290Z,85.30
2019-02-26T01:15:09.474Z,85.53
2019-02-26T01:16:08.277Z,85.81
2019-02-26T01:17:09.903Z,85.43
2019-02-26T01:18:08.260Z,86.00
2019-02-26T01:19:09.114Z,86.38
2019-02-26T01:20:08.237Z,86.47
2019-02-26T01:21:08.227Z,86.47
2019-02-26T01:22:08.218Z,86.47
2019-02-26T01:23:08.213Z,86.10
2019-02-26T01:24:08.629Z,86.29
2019-02-26T01:25:10.122Z,86.57
2019-02-26T01:26:10.056Z,86.57
2019-02-26T01:27:08.169Z,86.86
2019-02-26T01:28:08.158Z,86.29
2019-02-26T01:29:08.154Z,86.15
2019-02-26T01:30:08.146Z,86.15
2019-02-26T01:31:08.130Z,86.15
2019-02-26T01:32:11.009Z,86.05
2019-02-26T01:33:09.789Z,86.05
2019-02-26T01:34:11.025Z,86.05
2019-02-26T01:35:09.049Z,85.96
2019-02-26T01:36:08.090Z,86.43
2019-02-26T01:37:09.885Z,85.96
2019-02-26T01:38:08.071Z,85.77
2019-02-26T01:39:11.257Z,85.30
2019-02-26T01:40:10.858Z,86.15
2019-02-26T01:41:08.619Z,85.96
2019-02-26T01:42:08.028Z,86.34
2019-02-26T01:43:08.022Z,86.24
2019-02-26T01:44:08.844Z,86.34
2019-02-26T01:45:07.999Z,86.63
2019-02-26T01:46:09.915Z,87.29
2019-02-26T01:47:07.986Z,86.72
2019-02-26T01:48:09.245Z,86.91
2019-02-26T01:49:07.967Z,86.53
2019-02-26T01:50:09.356Z,87.57
2019-02-26T01:51:07.943Z,87.29
2019-02-26T01:52:08.338Z,86.72
2019-02-26T01:53:07.927Z,86.53
2019-02-26T01:54:09.841Z,86.63
2019-02-26T01:55:07.903Z,86.34
2019-02-26T01:56:07.892Z,86.53
2019-02-26T01:57:09.164Z,86.91
2019-02-26T01:58:07.877Z,87.57
2019-02-26T01:59:07.871Z,87.48
2019-02-26T02:00:07.861Z,86.63
2019-02-26T02:01:09.992Z,87.38
2019-02-26T02:02:12.160Z,87.19
2019-02-26T02:03:07.835Z,87.38
2019-02-26T02:04:08.819Z,87.10
2019-02-26T02:05:07.810Z,87.19
2019-02-26T02:06:09.014Z,87.57
2019-02-26T02:07:07.787Z,87.57
2019-02-26T02:08:11.058Z,87.57
2019-02-26T02:09:11.318Z,87.48
2019-02-26T02:10:07.759Z,87.38
2019-02-26T02:11:09.346Z,87.57
2019-02-26T02:12:08.870Z,87.57
2019-02-26T02:13:09.316Z,87.19
2019-02-26T02:14:08.227Z,87.01
2019-02-26T02:15:08.046Z,87.29
2019-02-26T02:16:08.993Z,87.57
2019-02-26T02:17:08.548Z,87.19
2019-02-26T02:18:07.688Z,87.10
2019-02-26T02:19:07.673Z,87.10
2019-02-26T02:20:07.934Z,87.10
2019-02-26T02:21:07.653Z,87.29
2019-02-26T02:22:07.641Z,87.10
2019-02-26T02:23:07.640Z,87.57
2019-02-26T02:24:10.723Z,87.48
2019-02-26T02:25:07.617Z,87.57
2019-02-26T02:26:09.400Z,87.38
2019-02-26T02:27:07.602Z,88.15
2019-02-26T02:28:07.582Z,87.76
2019-02-26T02:29:07.576Z,87.76
2019-02-26T02:30:07.567Z,87.67
2019-02-26T02:31:07.562Z,88.43
2019-02-26T02:32:07.838Z,88.24
2019-02-26T02:33:07.544Z,88.34
2019-02-26T02:34:07.527Z,88.34
2019-02-26T02:35:09.592Z,88.34
2019-02-26T02:36:09.732Z,87.38
2019-02-26T02:37:07.502Z,88.05
2019-02-26T02:38:07.498Z,87.48
2019-02-26T02:39:10.375Z,87.29
2019-02-26T02:40:07.464Z,87.19
2019-02-26T02:41:07.460Z,87.57
2019-02-26T02:42:08.479Z,87.19
2019-02-26T02:43:07.926Z,87.19
2019-02-26T02:44:07.429Z,87.38
2019-02-26T02:45:10.018Z,87.38
2019-02-26T02:46:07.414Z,87.57
2019-02-26T02:47:09.355Z,87.19
2019-02-26T02:48:09.212Z,87.57
2019-02-26T02:49:08.001Z,87.95
2019-02-26T02:50:09.228Z,87.86
2019-02-26T02:51:08.465Z,87.34
2019-02-26T02:52:09.615Z,88.01
2019-02-26T02:53:07.338Z,88.01
2019-02-26T02:54:07.329Z,87.62
2019-02-26T02:55:09.907Z,87.72
2019-02-26T02:56:09.840Z,88.20
2019-02-26T02:57:09.751Z,87.62
2019-02-26T02:58:07.294Z,88.48
2019-02-26T02:59:08.917Z,88.20
2019-02-26T03:00:08.501Z,88.29
2019-02-26T03:01:07.257Z,88.39
2019-02-26T03:02:09.248Z,88.48
2019-02-26T03:03:07.243Z,88.10
2019-02-26T03:04:07.231Z,88.01
2019-02-26T03:05:07.218Z,88.20
2019-02-26T03:06:09.556Z,88.48
2019-02-26T03:07:07.202Z,88.67
2019-02-26T03:08:08.148Z,88.01
2019-02-26T03:09:09.092Z,88.48
2019-02-26T03:10:09.513Z,88.48
2019-02-26T03:11:07.160Z,88.48
2019-02-26T03:12:07.151Z,88.67
2019-02-26T03:13:07.138Z,88.57
2019-02-26T03:14:08.435Z,88.76
2019-02-26T03:15:08.016Z,88.76
2019-02-26T03:16:07.113Z,88.57
2019-02-26T03:17:09.212Z,88.67
2019-02-26T03:18:09.905Z,89.14
2019-02-26T03:19:09.470Z,89.48
2019-02-26T03:20:08.088Z,89.14
2019-02-26T03:21:07.062Z,89.62
2019-02-26T03:22:07.756Z,88.86
2019-02-26T03:23:09.338Z,89.62
2019-02-26T03:24:08.611Z,89.72
2019-02-26T03:25:07.018Z,89.72
2019-02-26T03:26:09.969Z,88.95
2019-02-26T03:27:07.003Z,89.24
2019-02-26T03:28:06.990Z,89.14
2019-02-26T03:29:06.981Z,89.20
2019-02-26T03:30:06.972Z,88.91
2019-02-26T03:31:06.958Z,89.29
2019-02-26T03:32:06.955Z,89.20
2019-02-26T03:33:06.944Z,89.86
2019-02-26T03:34:10.393Z,89.29
2019-02-26T03:35:07.428Z,89.90
2019-02-26T03:36:08.586Z,89.39
2019-02-26T03:37:08.349Z,89.00
2019-02-26T03:38:06.882Z,89.10
2019-02-26T03:39:06.878Z,89.10
2019-02-26T03:40:08.263Z,88.81
2019-02-26T03:41:06.860Z,89.00
2019-02-26T03:42:08.266Z,89.48
2019-02-26T03:43:07.718Z,88.57
2019-02-26T03:44:08.774Z,89.20
2019-02-26T03:45:06.814Z,89.53
2019-02-26T03:46:06.802Z,89.10
2019-02-26T03:47:06.798Z,89.00
2019-02-26T03:48:06.788Z,89.10
2019-02-26T03:49:06.774Z,89.67
2019-02-26T03:50:09.334Z,89.76
2019-02-26T03:51:06.748Z,89.48
2019-02-26T03:52:06.739Z,89.76
2019-02-26T03:53:08.989Z,89.76
2019-02-26T03:54:06.722Z,89.58
2019-02-26T03:55:08.806Z,89.95
2019-02-26T03:56:08.156Z,90.14
2019-02-26T03:57:06.690Z,90.14
2019-02-26T03:58:06.679Z,90.05
2019-02-26T03:59:08.811Z,90.33
2019-02-26T04:00:08.757Z,90.33
2019-02-26T04:01:08.434Z,90.43
2019-02-26T04:02:07.262Z,89.95
2019-02-26T04:03:09.217Z,90.05
2019-02-26T04:04:07.681Z,90.71
2019-02-26T04:05:08.885Z,91.00
2019-02-26T04:06:09.385Z,90.24
2019-02-26T04:07:10.219Z,90.81
2019-02-26T04:08:06.578Z,90.71
2019-02-26T04:09:08.526Z,90.52
2019-02-26T04:10:06.555Z,90.24
2019-02-26T04:11:06.549Z,90.14
2019-02-26T04:12:07.608Z,90.24
2019-02-26T04:13:06.527Z,90.14
2019-02-26T04:14:12.313Z,90.14
2019-02-26T04:15:06.500Z,90.05
2019-02-26T04:16:06.489Z,89.48
2019-02-26T04:17:08.883Z,89.48
2019-02-26T04:18:06.469Z,89.86
2019-02-26T04:19:08.923Z,89.67
2019-02-26T04:20:06.451Z,89.95
2019-02-26T04:21:09.443Z,90.14
2019-02-26T04:22:06.438Z,89.58
2019-02-26T04:23:08.394Z,90.43
2019-02-26T04:24:08.586Z,90.33
2019-02-26T04:25:09.224Z,89.95
2019-02-26T04:26:06.394Z,90.14
2019-02-26T04:27:06.377Z,90.05
2019-02-26T04:28:08.077Z,89.76
2019-02-26T04:29:06.355Z,90.14
2019-02-26T04:30:08.297Z,90.05
2019-02-26T04:31:06.349Z,90.33
2019-02-26T04:32:06.329Z,90.43
2019-02-26T04:33:07.250Z,90.14
2019-02-26T04:34:08.525Z,90.14
2019-02-26T04:35:06.291Z,90.24
2019-02-26T04:36:06.279Z,91.00
2019-02-26T04:37:07.283Z,90.43
2019-02-26T04:38:06.441Z,90.71
2019-02-26T04:39:07.650Z,90.90
2019-02-26T04:40:08.371Z,90.81
2019-02-26T04:41:09.523Z,91.28
2019-02-26T04:42:08.562Z,91.56
2019-02-26T04:43:07.214Z,91.28
2019-02-26T04:44:06.379Z,91.28
2019-02-26T04:45:08.956Z,91.47
2019-02-26T04:46:08.048Z,92.14
2019-02-26T04:47:06.166Z,92.04
2019-02-26T04:48:06.153Z,91.85
2019-02-26T04:49:06.143Z,91.85
2019-02-26T04:50:08.634Z,91.66
2019-02-26T04:51:06.126Z,91.94
2019-02-26T04:52:10.219Z,91.94
2019-02-26T04:53:08.543Z,91.56
2019-02-26T04:54:06.095Z,91.75
2019-02-26T04:55:06.083Z,91.66
2019-02-26T04:56:11.726Z,91.94
2019-02-26T04:57:06.067Z,91.85
2019-02-26T04:58:06.055Z,91.85
2019-02-26T04:59:07.018Z,91.85
2019-02-26T05:00:07.864Z,91.47
2019-02-26T05:01:07.995Z,91.09
2019-02-26T05:02:06.004Z,91.28
2019-02-26T05:03:08.079Z,91.28
2019-02-26T05:04:05.989Z,91.47
2019-02-26T05:05:05.977Z,91.47
2019-02-26T05:06:07.865Z,90.67
2019-02-26T05:07:09.825Z,91.42
2019-02-26T05:08:07.520Z,91.61
2019-02-26T05:09:08.003Z,90.81
2019-02-26T05:10:05.919Z,91.99
2019-02-26T05:11:05.914Z,91.85
2019-02-26T05:12:05.900Z,91.38
2019-02-26T05:13:07.366Z,91.19
2019-02-26T05:14:06.796Z,90.90
2019-02-26T05:15:05.871Z,90.95
2019-02-26T05:16:05.858Z,90.67
2019-02-26T05:17:05.858Z,91.05
2019-02-26T05:18:05.850Z,90.57
2019-02-26T05:19:05.823Z,91.05
2019-02-26T05:20:07.177Z,90.95
2019-02-26T05:21:08.323Z,90.57
2019-02-26T05:22:07.050Z,91.05
2019-02-26T05:23:06.392Z,91.24
2019-02-26T05:24:05.773Z,91.42
2019-02-26T05:25:07.352Z,91.33
2019-02-26T05:26:08.373Z,91.05
2019-02-26T05:27:09.480Z,91.24
2019-02-26T05:28:06.557Z,91.42
2019-02-26T05:29:05.717Z,91.42
2019-02-26T05:30:07.050Z,91.42
2019-02-26T05:31:06.565Z,91.99
2019-02-26T05:32:07.243Z,91.05
2019-02-26T05:33:05.672Z,91.61
2019-02-26T05:34:05.662Z,91.14
2019-02-26T05:35:05.653Z,90.76
2019-02-26T05:36:06.142Z,90.57
2019-02-26T05:37:08.129Z,91.71
2019-02-26T05:38:06.812Z,92.09
2019-02-26T05:39:05.610Z,91.52
2019-02-26T05:40:07.065Z,92.09
2019-02-26T05:41:05.580Z,91.99
2019-02-26T05:42:06.298Z,91.99
2019-02-26T05:43:06.744Z,91.42
2019-02-26T05:44:08.332Z,91.90
2019-02-26T05:45:06.889Z,91.52
2019-02-26T05:46:05.528Z,91.80
2019-02-26T05:47:05.522Z,91.61
2019-02-26T05:48:05.514Z,91.71
2019-02-26T05:49:08.856Z,92.28
2019-02-26T05:50:06.940Z,91.90
2019-02-26T05:51:06.552Z,91.71
2019-02-26T05:52:07.113Z,91.90
2019-02-26T05:53:07.525Z,91.71
2019-02-26T05:54:08.190Z,91.71
2019-02-26T05:55:05.435Z,91.33
2019-02-26T05:56:05.424Z,92.09
2019-02-26T05:57:06.632Z,91.24
2019-02-26T05:58:07.295Z,91.71
2019-02-26T05:59:07.449Z,91.61
2019-02-26T06:00:08.105Z,91.42
2019-02-26T06:01:05.367Z,91.61
2019-02-26T06:02:05.357Z,92.09
2019-02-26T06:03:07.239Z,91.80
2019-02-26T06:04:07.686Z,91.90
2019-02-26T06:05:05.322Z,91.80
2019-02-26T06:06:05.320Z,91.19
2019-02-26T06:07:05.303Z,92.09
2019-02-26T06:08:05.294Z,91.76
2019-02-26T06:09:07.573Z,91.66
2019-02-26T06:10:05.271Z,91.66
2019-02-26T06:11:05.254Z,91.95
2019-02-26T06:12:05.244Z,91.85
2019-02-26T06:13:07.413Z,91.66
2019-02-26T06:14:09.073Z,91.95
2019-02-26T06:15:07.923Z,92.14
2019-02-26T06:16:07.357Z,91.85
2019-02-26T06:17:07.178Z,91.76
2019-02-26T06:18:05.175Z,91.66
2019-02-26T06:19:06.061Z,91.85
2019-02-26T06:20:07.873Z,91.66
2019-02-26T06:21:05.148Z,91.57
2019-02-26T06:22:05.135Z,92.23
2019-02-26T06:23:05.122Z,91.95
2019-02-26T06:24:05.108Z,91.85
2019-02-26T06:25:09.576Z,91.66
2019-02-26T06:26:09.747Z,92.04
2019-02-26T06:27:08.586Z,91.57
2019-02-26T06:28:07.714Z,92.23
2019-02-26T06:29:05.055Z,91.85
2019-02-26T06:30:07.316Z,92.09
2019-02-26T06:31:05.044Z,92.14
2019-02-26T06:32:05.651Z,92.14
2019-02-26T06:33:06.589Z,92.28
2019-02-26T06:34:06.455Z,92.38
2019-02-26T06:35:08.110Z,92.23
2019-02-26T06:36:06.462Z,92.09
2019-02-26T06:37:05.572Z,91.33
2019-02-26T06:38:06.838Z,92.28
2019-02-26T06:39:06.018Z,92.57
2019-02-26T06:40:05.697Z,92.18
2019-02-26T06:41:04.925Z,91.99
2019-02-26T06:42:05.900Z,91.61
2019-02-26T06:43:04.903Z,91.80
2019-02-26T06:44:04.887Z,92.18
2019-02-26T06:45:06.500Z,92.18
2019-02-26T06:46:05.705Z,92.47
2019-02-26T06:47:06.812Z,92.09
2019-02-26T06:48:04.846Z,91.80
2019-02-26T06:49:04.831Z,92.04
2019-02-26T06:50:07.527Z,91.75
2019-02-26T06:51:07.066Z,91.89
2019-02-26T06:52:06.087Z,91.33
2019-02-26T06:53:06.813Z,90.71
2019-02-26T06:54:04.784Z,90.28
2019-02-26T06:55:05.929Z,88.38
2019-02-26T06:56:04.758Z,87.38
2019-02-26T06:57:04.747Z,85.52
2019-02-26T06:58:04.738Z,83.62
2019-02-26T06:59:05.770Z,82.70
2019-02-26T07:00:04.723Z,81.51
2019-02-26T07:01:04.710Z,79.70
2019-02-26T07:02:04.701Z,78.69
2019-02-26T07:03:04.692Z,77.20
2019-02-26T07:04:04.677Z,75.87
2019-02-26T07:05:04.674Z,74.10
2019-02-26T07:06:04.951Z,73.05
2019-02-26T07:07:06.801Z,72.61
2019-02-26T07:08:06.503Z,70.98
2019-02-26T07:09:04.640Z,70.07
2019-02-26T07:10:04.632Z,68.92
2019-02-26T07:11:04.631Z,68.19
2019-02-26T07:12:04.622Z,67.52
2019-02-26T07:13:06.956Z,66.56
2019-02-26T07:14:05.565Z,66.76
2019-02-26T07:15:04.594Z,66.09
2019-02-26T07:16:05.276Z,65.93
2019-02-26T07:17:04.583Z,64.88
2019-02-26T07:18:07.285Z,63.86
2019-02-26T07:19:06.515Z,62.84
2019-02-26T07:20:04.566Z,61.44
2019-02-26T07:21:04.556Z,60.89
2019-02-26T07:22:05.413Z,59.75
2019-02-26T07:23:05.792Z,59.11
2019-02-26T07:24:04.544Z,58.17
2019-02-26T07:25:06.413Z,57.34
2019-02-26T07:26:04.530Z,56.48
2019-02-26T07:27:06.576Z,55.55
2019-02-26T07:28:04.516Z,54.42
2019-02-26T07:29:05.861Z,53.46
2019-02-26T07:30:04.508Z,52.53
2019-02-26T07:31:05.486Z,51.79
2019-02-26T07:32:04.506Z,51.50
2019-02-26T07:33:05.423Z,51.02
2019-02-26T07:34:04.501Z,50.18
2019-02-26T07:35:06.366Z,49.91
2019-02-26T07:36:04.491Z,48.76
2019-02-26T07:37:06.365Z,48.59
2019-02-26T07:38:04.490Z,47.72
2019-02-26T07:39:05.167Z,47.63
2019-02-26T07:40:05.753Z,46.50
2019-02-26T07:41:06.161Z,46.11
2019-02-26T07:42:04.477Z,45.94
2019-02-26T07:43:06.996Z,45.94
2019-02-26T07:44:04.482Z,44.59
2019-02-26T07:45:14.410Z,44.52
2019-02-26T07:46:04.478Z,43.85
2019-02-26T07:47:06.698Z,43.38
2019-02-26T07:48:04.472Z,43.19
2019-02-26T07:49:05.638Z,43.07
2019-02-26T07:50:06.621Z,43.10
2019-02-26T07:51:04.480Z,42.90
2019-02-26T07:52:06.647Z,42.61
2019-02-26T07:53:04.476Z,42.23
2019-02-26T07:54:04.475Z,42.32
2019-02-26T07:55:06.342Z,42.42
2019-02-26T07:56:06.225Z,42.25
2019-02-26T07:57:04.479Z,42.15
2019-02-26T07:58:06.233Z,41.88
2019-02-26T07:59:07.320Z,41.50
2019-02-26T08:00:04.481Z,41.61
2019-02-26T08:01:04.478Z,41.03
2019-02-26T08:02:06.383Z,40.67
2019-02-26T08:03:04.717Z,39.72
2019-02-26T08:04:06.186Z,39.92
2019-02-26T08:05:04.492Z,39.74
2019-02-26T08:06:06.754Z,39.16
2019-02-26T08:07:04.493Z,38.50
2019-02-26T08:08:04.493Z,38.02
2019-02-26T08:09:04.784Z,36.88
2019-02-26T08:10:07.489Z,36.98
2019-02-26T08:11:04.501Z,36.32
2019-02-26T08:12:06.605Z,35.73
2019-02-26T08:13:06.252Z,35.46
2019-02-26T08:14:04.508Z,34.97
2019-02-26T08:15:05.707Z,34.59
2019-02-26T08:16:05.153Z,34.51
2019-02-26T08:17:06.268Z,34.41
2019-02-26T08:18:05.274Z,34.12
2019-02-26T08:19:04.529Z,34.22
2019-02-26T08:20:07.348Z,33.84
2019-02-26T08:21:05.129Z,33.94
2019-02-26T08:22:04.537Z,33.65
2019-02-26T08:23:04.545Z,33.67
2019-02-26T08:24:04.550Z,33.18
2019-02-26T08:25:04.548Z,32.78
2019-02-26T08:26:04.555Z,33.17
2019-02-26T08:27:06.032Z,33.28
2019-02-26T08:28:04.566Z,33.26
2019-02-26T08:29:05.716Z,33.09
2019-02-26T08:30:06.283Z,33.09
2019-02-26T08:31:05.378Z,32.97
2019-02-26T08:32:04.584Z,32.70
2019-02-26T08:33:06.803Z,32.73
2019-02-26T08:34:04.594Z,33.78
2019-02-26T08:35:04.603Z,34.96
2019-02-26T08:36:04.608Z,35.05
2019-02-26T08:37:04.612Z,35.07
2019-02-26T08:38:06.288Z,35.09
2019-02-26T08:39:04.618Z,34.72
2019-02-26T08:40:04.621Z,34.04
2019-02-26T08:41:04.632Z,33.86
2019-02-26T08:42:04.641Z,33.39
2019-02-26T08:43:04.639Z,33.01
2019-02-26T08:44:04.644Z,32.71
2019-02-26T08:45:04.653Z,32.15
2019-02-26T08:46:06.760Z,32.64
2019-02-26T08:47:08.684Z,32.34
2019-02-26T08:48:04.677Z,31.97
2019-02-26T08:49:08.351Z,31.60
2019-02-26T08:50:07.364Z,31.98
2019-02-26T08:51:06.179Z,32.00
2019-02-26T08:52:04.695Z,31.22
2019-02-26T08:53:04.699Z,30.44
2019-02-26T08:54:04.708Z,30.64
2019-02-26T08:55:04.718Z,30.64
2019-02-26T08:56:04.724Z,30.74
2019-02-26T08:57:04.749Z,30.74
2019-02-26T08:58:04.732Z,30.83
2019-02-26T08:59:04.744Z,30.64
2019-02-26T09:00:04.765Z,30.74
2019-02-26T09:01:04.760Z,30.75
2019-02-26T09:02:04.768Z,30.55
2019-02-26T09:03:04.769Z,30.77
2019-02-26T09:04:04.775Z,30.38
2019-02-26T09:05:06.839Z,29.79
2019-02-26T09:06:13.103Z,29.30
2019-02-26T09:07:04.801Z,29.52
2019-02-26T09:08:05.970Z,29.24
2019-02-26T09:09:06.773Z,29.33
2019-02-26T09:10:07.029Z,29.44
2019-02-26T09:11:06.291Z,28.86
2019-02-26T09:12:04.829Z,28.39
2019-02-26T09:13:06.239Z,28.07
2019-02-26T09:14:06.701Z,28.28
2019-02-26T09:15:04.854Z,28.18
2019-02-26T09:16:06.121Z,28.00
2019-02-26T09:17:04.874Z,27.70
2019-02-26T09:18:04.879Z,27.62
2019-02-26T09:19:04.890Z,27.44
2019-02-26T09:20:09.179Z,27.36
2019-02-26T09:21:06.985Z,26.87
2019-02-26T09:22:04.911Z,26.68
2019-02-26T09:23:04.917Z,26.18
2019-02-26T09:24:07.506Z,26.20
2019-02-26T09:25:04.935Z,25.92
2019-02-26T09:26:06.963Z,26.11
2019-02-26T09:27:05.118Z,25.54
2019-02-26T09:28:04.968Z,25.34
2019-02-26T09:29:04.971Z,24.95
2019-02-26T09:30:05.935Z,24.86
2019-02-26T09:31:06.705Z,24.37
2019-02-26T09:32:06.864Z,24.37
2019-02-26T09:33:06.384Z,24.38
2019-02-26T09:34:05.020Z,24.19
2019-02-26T09:35:05.027Z,23.80
2019-02-26T09:36:05.034Z,23.70
2019-02-26T09:37:05.827Z,23.91
2019-02-26T09:38:05.055Z,23.82
2019-02-26T09:39:05.929Z,24.31
2019-02-26T09:40:05.080Z,23.72
2019-02-26T09:41:05.092Z,24.13
2019-02-26T09:42:06.509Z,23.83
2019-02-26T09:43:06.202Z,23.24
2019-02-26T09:44:06.753Z,23.16
2019-02-26T09:45:05.132Z,22.86
2019-02-26T09:46:08.566Z,23.07
2019-02-26T09:47:07.411Z,22.64
2019-02-26T09:48:05.162Z,23.43
2019-02-26T09:49:09.817Z,23.24
2019-02-26T09:50:05.179Z,22.94
2019-02-26T09:51:07.023Z,22.94
2019-02-26T09:52:06.527Z,22.74
2019-02-26T09:53:05.217Z,22.24
2019-02-26T09:54:05.228Z,22.45
2019-02-26T09:55:05.244Z,22.56
2019-02-26T09:56:05.245Z,21.78
2019-02-26T09:57:05.261Z,21.56
2019-02-26T09:58:05.271Z,22.24
2019-02-26T09:59:07.130Z,23.13
2019-02-26T10:00:05.296Z,22.66
2019-02-26T10:01:06.834Z,22.14
2019-02-26T10:02:06.077Z,22.52
2019-02-26T10:03:07.853Z,23.02
2019-02-26T10:04:05.479Z,22.45
2019-02-26T10:05:06.299Z,22.27
2019-02-26T10:06:05.364Z,22.27
2019-02-26T10:07:07.379Z,21.59
2019-02-26T10:08:05.473Z,21.59
2019-02-26T10:09:05.393Z,21.70
2019-02-26T10:10:06.516Z,22.00
2019-02-26T10:11:05.422Z,21.03
2019-02-26T10:12:07.534Z,21.12
2019-02-26T10:13:05.446Z,20.54
2019-02-26T10:14:07.789Z,20.32
2019-02-26T10:15:05.467Z,21.01
2019-02-26T10:16:06.460Z,20.31
2019-02-26T10:17:05.494Z,21.36
2019-02-26T10:18:07.198Z,21.92
2019-02-26T10:19:05.517Z,22.12
2019-02-26T10:20:08.606Z,22.98
2019-02-26T10:21:06.753Z,22.77
2019-02-26T10:22:09.103Z,23.77
2019-02-26T10:23:06.277Z,23.80
2019-02-26T10:24:05.572Z,23.71
2019-02-26T10:25:05.588Z,22.75
2019-02-26T10:26:07.628Z,22.17
2019-02-26T10:27:06.623Z,21.88
2019-02-26T10:28:08.750Z,22.38
2019-02-26T10:29:07.849Z,21.88
2019-02-26T10:30:07.865Z,21.29
2019-02-26T10:31:07.816Z,21.11
2019-02-26T10:32:05.665Z,20.81
2019-02-26T10:33:05.672Z,21.11
2019-02-26T10:34:07.818Z,20.92
2019-02-26T10:35:06.489Z,21.09
2019-02-26T10:36:07.913Z,21.00
2019-02-26T10:37:05.726Z,20.87
2019-02-26T10:38:08.135Z,21.17
2019-02-26T10:39:07.380Z,21.86
2019-02-26T10:40:07.638Z,21.56
2019-02-26T10:41:05.769Z,22.14
2019-02-26T10:42:05.782Z,23.23
2019-02-26T10:43:05.796Z,22.75
2019-02-26T10:44:05.809Z,22.25
2019-02-26T10:45:05.821Z,21.26
2019-02-26T10:46:05.830Z,22.23
2019-02-26T10:47:08.156Z,22.50
2019-02-26T10:48:05.851Z,23.19
2019-02-26T10:49:05.867Z,23.10
2019-02-26T10:50:05.896Z,23.11
2019-02-26T10:51:06.733Z,22.34
2019-02-26T10:52:05.896Z,22.16
2019-02-26T10:53:10.213Z,22.14
2019-02-26T10:54:08.940Z,22.30
2019-02-26T10:55:05.938Z,23.32
2019-02-26T10:56:05.949Z,24.49
2019-02-26T10:57:07.584Z,24.51
2019-02-26T10:58:09.995Z,25.11
2019-02-26T10:59:09.028Z,24.92
2019-02-26T11:00:08.431Z,24.95
2019-02-26T11:01:05.998Z,23.98
2019-02-26T11:02:06.011Z,22.92
2019-02-26T11:03:06.563Z,23.02
2019-02-26T11:04:06.037Z,22.92
2019-02-26T11:05:06.043Z,23.12
2019-02-26T11:06:07.334Z,22.64
2019-02-26T11:07:08.846Z,22.94
2019-02-26T11:08:09.141Z,22.67
2019-02-26T11:09:06.097Z,22.08
2019-02-26T11:10:06.107Z,21.30
2019-02-26T11:11:08.151Z,20.42
2019-02-26T11:12:08.487Z,21.28
2019-02-26T11:13:06.136Z,20.89
2019-02-26T11:14:08.319Z,21.67
2019-02-26T11:15:06.871Z,21.78
2019-02-26T11:16:06.174Z,21.00
2019-02-26T11:17:06.194Z,20.90
2019-02-26T11:18:08.082Z,20.51
2019-02-26T11:19:07.535Z,20.41
2019-02-26T11:20:07.758Z,20.51
2019-02-26T11:21:06.254Z,20.72
2019-02-26T11:22:06.244Z,20.32
2019-02-26T11:23:08.403Z,20.92
2019-02-26T11:24:08.478Z,21.22
2019-02-26T11:25:06.272Z,21.22
2019-02-26T11:26:06.648Z,21.31
2019-02-26T11:27:06.299Z,21.19
2019-02-26T11:28:07.437Z,22.08
2019-02-26T11:29:06.320Z,21.59
2019-02-26T11:30:06.330Z,22.08
2019-02-26T11:31:06.338Z,22.48
2019-02-26T11:32:07.822Z,22.38
2019-02-26T11:33:10.126Z,23.07
2019-02-26T11:34:09.762Z,22.88
2019-02-26T11:35:06.389Z,23.17
2019-02-26T11:36:08.208Z,22.48
2019-02-26T11:37:08.878Z,22.06
2019-02-26T11:38:06.419Z,22.35
2019-02-26T11:39:06.833Z,22.24
2019-02-26T11:40:06.442Z,22.91
2019-02-26T11:41:06.450Z,22.80
2019-02-26T11:42:06.463Z,22.98
2019-02-26T11:43:11.667Z,23.83
2019-02-26T11:44:10.022Z,24.21
2019-02-26T11:45:08.879Z,25.74
2019-02-26T11:46:08.687Z,26.61
2019-02-26T11:47:08.096Z,26.48
2019-02-26T11:48:08.668Z,26.65
2019-02-26T11:49:06.530Z,27.12
2019-02-26T11:50:07.501Z,27.59
2019-02-26T11:51:06.549Z,27.78
2019-02-26T11:52:06.547Z,28.85
2019-02-26T11:53:09.326Z,29.51
2019-02-26T11:54:08.235Z,29.48
2019-02-26T11:55:08.527Z,30.23
2019-02-26T11:56:06.574Z,31.16
2019-02-26T11:57:08.047Z,31.73
2019-02-26T11:58:10.005Z,32.89
2019-02-26T11:59:08.967Z,33.18
2019-02-26T12:00:07.446Z,33.86
2019-02-26T12:01:06.604Z,34.54
2019-02-26T12:02:06.615Z,34.63
2019-02-26T12:03:06.609Z,35.21
2019-02-26T12:04:08.504Z,35.21
2019-02-26T12:05:08.131Z,34.91
2019-02-26T12:06:07.108Z,35.00
2019-02-26T12:07:09.644Z,35.31
2019-02-26T12:08:06.639Z,36.38
2019-02-26T12:09:08.767Z,36.38
2019-02-26T12:11:09.754Z,34.81
2019-02-26T12:12:09.255Z,34.62
2019-02-26T12:13:06.652Z,34.60
2019-02-26T12:14:08.286Z,34.70
2019-02-26T12:15:09.135Z,36.05
2019-02-26T12:16:06.654Z,36.74
2019-02-26T12:17:06.658Z,38.58
2019-02-26T12:18:06.664Z,36.94
2019-02-26T12:19:08.717Z,36.94
2019-02-26T12:20:06.669Z,36.74
2019-02-26T12:21:07.962Z,36.55
2019-02-26T12:22:06.677Z,36.26
2019-02-26T12:23:07.995Z,36.07
2019-02-26T12:24:09.252Z,36.44
2019-02-26T12:25:08.969Z,36.92
2019-02-26T12:26:06.684Z,38.29
2019-02-26T12:27:07.334Z,39.64
2019-02-26T12:28:08.164Z,38.29
2019-02-26T12:29:06.683Z,36.74
2019-02-26T12:30:07.237Z,35.86
2019-02-26T12:31:09.857Z,36.24
2019-02-26T12:32:06.694Z,36.44
2019-02-26T12:33:09.186Z,36.53
2019-02-26T12:34:09.132Z,36.05
2019-02-26T12:35:08.577Z,35.66
2019-02-26T12:36:07.568Z,35.55
2019-02-26T12:37:09.821Z,35.45
2019-02-26T12:38:17.409Z,36.42
2019-02-26T12:39:06.704Z,35.72
2019-02-26T12:40:06.703Z,36.09
2019-02-26T12:41:08.843Z,35.80
2019-02-26T12:42:07.399Z,35.80
2019-02-26T12:43:11.039Z,36.38
2019-02-26T12:44:10.820Z,36.77
2019-02-26T12:45:09.709Z,36.55
2019-02-26T12:46:08.340Z,36.55
2019-02-26T12:47:06.711Z,36.25
2019-02-26T12:48:09.867Z,36.06
2019-02-26T12:49:08.648Z,36.83
2019-02-26T12:50:09.696Z,36.63
2019-02-26T12:51:07.769Z,36.83
2019-02-26T12:52:06.726Z,37.79
2019-02-26T12:53:09.514Z,37.79